Time;durP1;ratioP1;P1;durP2;ratioP2;P2;SDS_P1;SDS_P2;PMS_P1;PMS_P2;Temp;Humidity;BMP_temperature;BMP_pressure;BME280_temperature;BME280_humidity;BME280_pressure;Samples;Min_cycle;Max_cycle;Signal;HPM_P1;HPM_P2
2021/04/30 00:00:38;;;;;;;1.33;1.17;;;24.80;94.40;;;;;;5114879;28;20281;-90
2021/04/30 00:03:10;;;;;;;3.80;1.93;;;24.80;93.20;;;;;;5126198;28;20206;-89
2021/04/30 00:05:41;;;;;;;2.10;0.90;;;25.00;92.80;;;;;;5108036;28;20697;-89
2021/04/30 00:08:12;;;;;;;3.63;1.00;;;24.50;92.60;;;;;;5123722;28;20202;-90
2021/04/30 00:10:44;;;;;;;2.70;1.07;;;24.20;93.10;;;;;;5118274;28;20228;-90
2021/04/30 00:13:15;;;;;;;2.13;0.90;;;24.30;94.00;;;;;;5119702;28;20245;-90
2021/04/30 00:15:46;;;;;;;3.70;1.10;;;24.50;94.10;;;;;;5118973;28;20334;-90
2021/04/30 00:18:19;;;;;;;2.17;1.20;;;24.50;93.40;;;;;;5117375;28;20206;-89
2021/04/30 00:20:54;;;;;;;3.30;0.90;;;24.10;93.70;;;;;;5119358;28;20210;-89
2021/04/30 00:23:26;;;;;;;2.27;1.00;;;24.20;94.80;;;;;;5117597;28;20301;-89
2021/04/30 00:25:58;;;;;;;1.10;0.90;;;24.20;94.90;;;;;;5119064;28;20210;-89
2021/04/30 00:28:29;;;;;;;4.00;1.07;;;24.20;94.70;;;;;;5100221;28;20210;-89
2021/04/30 00:30:59;;;;;;;1.60;0.90;;;24.50;94.10;;;;;;5122004;28;20229;-89
2021/04/30 00:33:31;;;;;;;2.77;0.90;;;24.50;94.70;;;;;;5117348;28;20206;-89
2021/04/30 00:36:03;;;;;;;3.40;1.20;;;24.30;94.90;;;;;;5118730;28;20203;-88
2021/04/30 00:38:32;;;;;;;3.87;1.10;;;24.20;95.30;;;;;;5119879;28;20210;-89
2021/04/30 00:41:02;;;;;;;2.63;1.03;;;24.20;94.20;;;;;;5115940;28;20418;-89
2021/04/30 00:43:32;;;;;;;4.30;1.00;;;24.40;94.80;;;;;;5107629;28;20267;-89
2021/04/30 00:46:02;;;;;;;2.80;1.10;;;24.40;93.50;;;;;;5116200;28;20314;-89
2021/04/30 00:48:34;;;;;;;2.30;1.00;;;24.20;95.10;;;;;;5117607;28;20194;-89
2021/04/30 00:51:05;;;;;;;2.43;1.30;;;24.40;94.90;;;;;;5117765;28;20210;-89
2021/04/30 00:53:35;;;;;;;7.77;1.00;;;24.30;94.30;;;;;;5117097;28;20342;-90
2021/04/30 00:56:07;;;;;;;1.77;0.90;;;24.30;94.00;;;;;;5116805;28;20206;-91
2021/04/30 00:58:37;;;;;;;2.27;1.03;;;24.20;94.20;;;;;;5117483;28;20221;-91
2021/04/30 01:01:08;;;;;;;1.23;0.83;;;24.00;95.10;;;;;;5120997;28;20305;-90
2021/04/30 01:03:40;;;;;;;1.47;1.13;;;24.00;94.30;;;;;;5116766;28;20324;-91
2021/04/30 01:06:11;;;;;;;1.43;0.97;;;23.80;94.50;;;;;;5116934;28;20222;-90
2021/04/30 01:08:43;;;;;;;2.83;0.80;;;23.60;95.20;;;;;;5121233;28;20199;-90
2021/04/30 01:11:13;;;;;;;0.60;0.60;;;23.70;94.80;;;;;;5121595;28;20202;-91
2021/04/30 01:13:44;;;;;;;1.17;0.93;;;23.70;94.30;;;;;;5118695;28;20206;-91
2021/04/30 01:16:13;;;;;;;2.93;0.80;;;23.50;92.60;;;;;;5122749;28;20236;-91
2021/04/30 01:18:45;;;;;;;2.20;0.80;;;23.50;91.30;;;;;;5117450;28;20214;-91
2021/04/30 01:21:17;;;;;;;2.50;0.70;;;23.30;92.50;;;;;;5117243;28;20267;-91
2021/04/30 01:23:51;;;;;;;1.97;0.80;;;23.20;91.00;;;;;;5135193;28;20190;-91
2021/04/30 01:26:22;;;;;;;1.33;1.00;;;23.10;92.10;;;;;;5135441;28;20189;-90
2021/04/30 01:28:53;;;;;;;2.23;0.77;;;22.90;92.40;;;;;;5132501;28;20234;-90
2021/04/30 01:31:24;;;;;;;3.13;0.80;;;22.90;91.20;;;;;;5118758;28;20228;-91
2021/04/30 01:33:58;;;;;;;1.07;0.63;;;22.90;90.70;;;;;;5099365;28;20222;-90
2021/04/30 01:36:30;;;;;;;2.00;0.93;;;22.80;90.70;;;;;;5116161;28;20221;-90
2021/04/30 01:39:06;;;;;;;1.43;0.60;;;22.80;90.80;;;;;;5116349;28;20233;-90
2021/04/30 01:41:38;;;;;;;0.90;0.60;;;22.70;91.00;;;;;;5116921;28;20317;-90
2021/04/30 01:44:12;;;;;;;2.83;2.47;;;22.70;91.90;;;;;;5117768;28;20631;-89
2021/04/30 01:46:44;;;;;;;1.50;1.00;;;22.70;91.40;;;;;;5119894;28;20285;-91
2021/04/30 01:49:22;;;;;;;2.13;0.87;;;22.60;91.50;;;;;;5126217;28;20206;-89
2021/04/30 01:51:51;;;;;;;2.20;1.00;;;22.20;91.90;;;;;;5125624;28;20206;-90
2021/04/30 01:54:23;;;;;;;1.30;0.80;;;22.10;93.60;;;;;;5120430;28;20241;-91
2021/04/30 01:56:53;;;;;;;4.80;1.77;;;21.80;92.50;;;;;;5119823;28;20206;-91
2021/04/30 01:59:23;;;;;;;3.03;1.10;;;21.70;92.70;;;;;;5118220;28;20206;-91
2021/04/30 02:01:53;;;;;;;3.83;2.50;;;21.60;93.30;;;;;;5116008;28;20635;-91
2021/04/30 02:04:24;;;;;;;1.80;1.70;;;21.50;93.70;;;;;;5116268;28;20232;-91
2021/04/30 02:06:53;;;;;;;4.60;1.37;;;21.30;93.80;;;;;;5115324;28;20222;-91
2021/04/30 02:09:25;;;;;;;1.80;0.97;;;21.20;94.30;;;;;;5115635;28;20202;-90
2021/04/30 02:11:56;;;;;;;2.60;1.20;;;21.10;93.60;;;;;;5116008;28;20642;-92
2021/04/30 02:14:26;;;;;;;1.57;1.20;;;20.80;93.50;;;;;;5115433;28;20750;-91
2021/04/30 02:16:56;;;;;;;1.27;1.10;;;20.60;92.10;;;;;;5114842;28;20206;-90
2021/04/30 02:19:26;;;;;;;1.77;1.27;;;20.50;92.90;;;;;;5115670;28;20207;-90
2021/04/30 02:21:57;;;;;;;2.30;1.20;;;20.40;93.80;;;;;;5115286;28;20206;-90
2021/04/30 02:24:29;;;;;;;2.00;1.10;;;20.30;93.60;;;;;;5115455;28;20210;-90
2021/04/30 02:26:58;;;;;;;1.93;1.10;;;20.20;93.40;;;;;;5114883;28;20206;-90
2021/04/30 02:29:29;;;;;;;3.03;1.00;;;20.20;94.70;;;;;;5115453;28;20243;-90
2021/04/30 02:31:59;;;;;;;2.63;0.90;;;20.00;94.60;;;;;;5115400;28;20272;-90
2021/04/30 02:34:30;;;;;;;2.70;1.37;;;19.90;93.90;;;;;;5115717;28;20254;-90
2021/04/30 02:37:00;;;;;;;6.87;1.27;;;19.70;95.20;;;;;;5102572;28;20256;-89
2021/04/30 02:39:32;;;;;;;3.13;1.20;;;19.60;94.50;;;;;;5095160;28;20226;-91
2021/04/30 02:42:02;;;;;;;2.77;1.27;;;19.50;94.30;;;;;;5095062;28;20206;-91
2021/04/30 02:44:33;;;;;;;1.77;1.00;;;19.40;96.00;;;;;;5108100;28;20231;-90
2021/04/30 02:47:04;;;;;;;1.17;1.00;;;19.10;96.60;;;;;;5114411;28;20662;-91
2021/04/30 02:49:47;;;;;;;3.00;1.00;;;19.00;96.20;;;;;;5115042;28;20634;-91
2021/04/30 02:52:19;;;;;;;1.97;1.03;;;18.80;95.40;;;;;;5115735;28;20280;-91
2021/04/30 02:54:51;;;;;;;3.23;1.03;;;18.70;96.00;;;;;;5114463;28;20317;-92
2021/04/30 02:57:22;;;;;;;3.07;0.70;;;18.50;96.90;;;;;;5115198;28;20271;-91
2021/04/30 02:59:53;;;;;;;1.30;0.60;;;18.40;89.00;;;;;;5114982;28;20202;-91
2021/04/30 03:02:24;;;;;;;1.20;0.50;;;18.30;84.80;;;;;;5115154;28;20226;-92
2021/04/30 03:04:55;;;;;;;1.13;0.63;;;18.30;81.90;;;;;;5113963;28;20198;-92
2021/04/30 03:07:26;;;;;;;1.53;0.43;;;18.10;79.80;;;;;;5115110;28;20572;-91
2021/04/30 03:09:58;;;;;;;1.53;0.40;;;18.00;79.60;;;;;;5114917;28;20230;-90
2021/04/30 03:12:29;;;;;;;1.23;0.40;;;17.90;79.20;;;;;;5114777;28;20213;-90
2021/04/30 03:15:00;;;;;;;0.77;0.60;;;17.80;78.90;;;;;;5096204;28;20265;-91
2021/04/30 03:17:31;;;;;;;5.07;0.40;;;17.70;79.80;;;;;;5114565;28;20233;-89
2021/04/30 03:20:02;;;;;;;0.80;0.50;;;17.60;80.10;;;;;;5116582;28;20300;-89
2021/04/30 03:22:32;;;;;;;0.70;0.40;;;17.50;81.80;;;;;;5114609;28;20256;-90
2021/04/30 03:25:06;;;;;;;1.43;0.47;;;17.40;80.60;;;;;;5113982;28;20254;-89
2021/04/30 03:27:37;;;;;;;2.67;0.60;;;17.30;81.30;;;;;;5113884;28;20255;-90
2021/04/30 03:30:08;;;;;;;0.97;0.50;;;17.30;80.30;;;;;;5114673;28;20206;-90
2021/04/30 03:32:39;;;;;;;0.83;0.40;;;17.30;80.50;;;;;;5099272;28;20206;-90
2021/04/30 03:35:16;;;;;;;0.40;0.40;;;17.10;78.30;;;;;;5116399;28;20390;-90
2021/04/30 03:37:47;;;;;;;0.47;0.30;;;17.10;78.00;;;;;;5120615;28;20206;-90
2021/04/30 03:40:19;;;;;;;2.13;0.50;;;17.00;79.70;;;;;;5122787;28;20206;-90
2021/04/30 03:42:50;;;;;;;0.87;0.50;;;16.90;77.70;;;;;;5121509;28;20259;-90
2021/04/30 03:45:21;;;;;;;0.30;0.20;;;16.90;77.90;;;;;;5118527;28;20606;-90
2021/04/30 03:47:52;;;;;;;0.30;0.30;;;16.80;76.90;;;;;;5132438;28;20213;-91
2021/04/30 03:50:23;;;;;;;1.37;0.40;;;16.80;77.40;;;;;;5121629;28;20259;-90
2021/04/30 03:52:54;;;;;;;0.93;0.40;;;16.70;78.50;;;;;;5138840;28;20202;-91
2021/04/30 03:55:26;;;;;;;1.17;0.50;;;16.60;76.80;;;;;;5122967;28;20287;-90
2021/04/30 03:57:57;;;;;;;3.00;0.60;;;16.70;78.20;;;;;;5120686;28;20198;-90
2021/04/30 04:00:28;;;;;;;1.97;0.40;;;16.60;79.10;;;;;;5119542;28;20195;-91
2021/04/30 04:02:58;;;;;;;0.73;0.60;;;16.60;79.80;;;;;;5119327;28;20218;-90
2021/04/30 04:05:30;;;;;;;0.60;0.40;;;16.50;79.50;;;;;;5118385;28;20198;-90
2021/04/30 04:08:00;;;;;;;1.40;0.40;;;16.40;79.30;;;;;;5118168;28;20662;-91
2021/04/30 04:10:33;;;;;;;0.93;0.50;;;16.40;78.30;;;;;;5100566;28;20198;-91
2021/04/30 04:13:03;;;;;;;2.13;0.40;;;16.40;77.10;;;;;;5117623;28;20251;-91
2021/04/30 04:15:33;;;;;;;0.20;0.20;;;16.40;75.80;;;;;;5116431;28;20693;-91
2021/04/30 04:18:03;;;;;;;0.40;0.30;;;16.40;75.30;;;;;;5117236;28;20273;-89
2021/04/30 04:20:34;;;;;;;0.90;0.50;;;16.30;78.10;;;;;;5117370;28;20298;-89
2021/04/30 04:23:05;;;;;;;1.50;0.40;;;16.20;78.30;;;;;;5104735;28;20209;-89
2021/04/30 04:25:38;;;;;;;1.07;0.57;;;16.00;79.00;;;;;;5116602;28;20241;-90
2021/04/30 04:28:09;;;;;;;1.17;0.40;;;15.90;79.30;;;;;;5119981;28;20206;-90
2021/04/30 04:30:40;;;;;;;3.67;0.70;;;15.80;79.50;;;;;;5119427;28;20542;-90
2021/04/30 04:33:11;;;;;;;0.67;0.30;;;15.70;80.30;;;;;;5117068;28;20226;-90
2021/04/30 04:35:42;;;;;;;2.80;0.40;;;15.60;79.70;;;;;;5101224;28;20287;-90
2021/04/30 04:38:13;;;;;;;1.27;0.60;;;15.60;79.60;;;;;;5117889;28;20210;-90
2021/04/30 04:40:45;;;;;;;0.77;0.40;;;15.50;79.00;;;;;;5120376;28;20209;-89
2021/04/30 04:43:16;;;;;;;1.50;0.30;;;15.40;80.40;;;;;;5116974;28;20642;-90
2021/04/30 04:45:47;;;;;;;0.57;0.40;;;15.30;79.30;;;;;;5118253;28;20206;-90
2021/04/30 04:48:17;;;;;;;1.17;0.50;;;15.20;78.60;;;;;;5120107;28;20199;-90
2021/04/30 04:50:47;;;;;;;0.77;0.33;;;15.10;79.10;;;;;;5117692;28;20289;-90
2021/04/30 04:53:27;;;;;;;0.53;0.20;;;15.10;79.00;;;;;;5117065;28;20210;-90
2021/04/30 04:56:24;;;;;;;0.60;0.40;;;15.00;78.20;;;;;;5116503;28;20226;-90
2021/04/30 04:58:55;;;;;;;0.60;0.30;;;15.10;77.80;;;;;;5117069;28;20213;-90
2021/04/30 05:01:26;;;;;;;1.23;0.40;;;15.10;77.90;;;;;;5117412;28;20209;-90
2021/04/30 05:03:57;;;;;;;0.40;0.30;;;15.00;78.20;;;;;;5119357;28;20202;-90
2021/04/30 05:06:28;;;;;;;0.27;0.20;;;15.10;79.30;;;;;;5116427;28;20546;-90
2021/04/30 05:08:59;;;;;;;0.33;0.33;;;15.00;79.60;;;;;;5117408;28;20251;-91
2021/04/30 05:11:40;;;;;;;0.50;0.40;;;15.00;80.70;;;;;;5117583;28;20289;-91
2021/04/30 05:14:28;;;;;;;0.47;0.30;;;15.00;81.90;;;;;;5117025;28;20273;-90
2021/04/30 05:17:08;;;;;;;0.50;0.30;;;14.90;82.20;;;;;;5116000;28;20210;-90
2021/04/30 05:19:41;;;;;;;1.40;0.50;;;14.80;82.90;;;;;;5116640;28;20283;-89
2021/04/30 05:22:18;;;;;;;1.50;0.30;;;14.80;83.20;;;;;;5115990;28;20226;-89
2021/04/30 05:24:49;;;;;;;1.17;0.40;;;14.70;84.00;;;;;;5116108;28;20194;-90
2021/04/30 05:27:22;;;;;;;0.47;0.27;;;14.70;85.10;;;;;;5116259;28;20205;-90
2021/04/30 05:29:52;;;;;;;0.93;0.40;;;14.60;86.60;;;;;;5116240;28;20206;-90
2021/04/30 05:32:23;;;;;;;0.80;0.30;;;14.60;86.60;;;;;;5116519;28;20615;-90
2021/04/30 05:34:55;;;;;;;5.50;0.50;;;14.50;87.10;;;;;;5115144;28;20233;-92
2021/04/30 05:37:26;;;;;;;0.33;0.30;;;14.50;89.40;;;;;;5116347;28;20658;-90
2021/04/30 05:39:57;;;;;;;0.67;0.40;;;14.50;89.50;;;;;;5116228;28;20293;-89
2021/04/30 05:42:30;;;;;;;0.87;0.50;;;14.40;90.00;;;;;;5098278;28;20229;-89
2021/04/30 05:45:01;;;;;;;0.70;0.40;;;14.40;90.70;;;;;;5115622;28;20297;-90
2021/04/30 05:47:32;;;;;;;0.37;0.30;;;14.40;92.70;;;;;;5115592;28;20270;-90
2021/04/30 05:50:03;;;;;;;1.23;0.20;;;14.30;93.80;;;;;;5115779;28;20256;-90
2021/04/30 05:52:33;;;;;;;1.43;0.40;;;14.30;95.80;;;;;;5116065;28;20302;-90
2021/04/30 05:55:04;;;;;;;1.53;0.30;;;14.20;96.60;;;;;;5097920;28;20611;-90
2021/04/30 05:57:37;;;;;;;0.30;0.30;;;14.20;98.60;;;;;;5116027;28;20555;-90
2021/04/30 06:00:10;;;;;;;0.93;0.40;;;14.20;99.90;;;;;;5115375;28;20678;-90
2021/04/30 06:02:41;;;;;;;0.60;0.30;;;14.20;99.90;;;;;;5115400;28;20240;-90
2021/04/30 06:05:12;;;;;;;0.50;0.37;;;14.20;99.90;;;;;;5115448;28;20233;-90
2021/04/30 06:07:43;;;;;;;0.47;0.20;;;14.20;99.90;;;;;;5116032;28;20252;-90
2021/04/30 06:10:14;;;;;;;0.30;0.30;;;14.20;99.90;;;;;;5083372;28;20202;-91
2021/04/30 06:12:46;;;;;;;2.83;0.40;;;14.10;99.90;;;;;;5129534;28;20210;-91
2021/04/30 06:15:17;;;;;;;0.40;0.30;;;14.10;99.90;;;;;;5128932;28;20250;-90
2021/04/30 06:17:47;;;;;;;1.00;0.30;;;14.10;99.90;;;;;;5124806;28;20256;-89
2021/04/30 06:20:18;;;;;;;0.97;0.30;;;14.00;99.90;;;;;;5117421;28;20579;-89
2021/04/30 06:22:48;;;;;;;0.20;0.20;;;14.10;99.90;;;;;;5098496;28;20202;-88
2021/04/30 06:25:19;;;;;;;0.80;0.40;;;14.10;99.90;;;;;;5115321;28;20735;-89
2021/04/30 06:27:56;;;;;;;1.07;0.30;;;14.10;99.90;;;;;;5115149;28;20296;-89
2021/04/30 06:30:27;;;;;;;0.57;0.30;;;14.00;99.90;;;;;;5097604;28;20616;-89
2021/04/30 06:32:58;;;;;;;0.40;0.30;;;14.00;99.90;;;;;;5097977;28;20202;-89
2021/04/30 06:35:30;;;;;;;0.50;0.30;;;13.90;99.90;;;;;;5096781;28;20309;-89
2021/04/30 06:38:00;;;;;;;0.70;0.40;;;13.90;99.90;;;;;;5114756;28;20206;-89
2021/04/30 06:40:30;;;;;;;0.67;0.37;;;13.90;99.90;;;;;;5097367;28;20233;-89
2021/04/30 06:43:03;;;;;;;1.53;0.40;;;13.80;99.90;;;;;;5115293;28;20209;-89
2021/04/30 06:45:34;;;;;;;0.80;0.43;;;13.80;99.90;;;;;;5113908;28;20229;-89
2021/04/30 06:48:07;;;;;;;1.37;0.40;;;13.80;99.90;;;;;;5115038;28;20650;-90
2021/04/30 06:50:37;;;;;;;0.40;0.40;;;13.70;99.90;;;;;;5114829;28;20252;-90
2021/04/30 06:53:08;;;;;;;0.90;0.40;;;13.70;99.90;;;;;;5114863;28;20605;-90
2021/04/30 06:55:39;;;;;;;1.07;0.50;;;13.60;99.90;;;;;;5114146;28;20234;-90
2021/04/30 06:58:11;;;;;;;0.80;0.40;;;13.50;99.90;;;;;;5097540;28;20249;-90
2021/04/30 07:00:42;;;;;;;1.13;0.40;;;13.50;99.90;;;;;;5114812;28;20233;-90
2021/04/30 07:03:13;;;;;;;0.87;0.60;;;13.40;99.90;;;;;;5115965;28;20210;-90
2021/04/30 07:06:00;;;;;;;1.17;0.60;;;13.40;99.90;;;;;;5114258;28;20202;-90
2021/04/30 07:08:31;;;;;;;0.70;0.40;;;13.30;99.90;;;;;;5114707;28;20202;-91
2021/04/30 07:11:02;;;;;;;2.00;0.60;;;13.30;99.90;;;;;;5115277;28;20198;-91
2021/04/30 07:13:35;;;;;;;0.70;0.53;;;13.20;99.90;;;;;;5119157;28;20274;-91
2021/04/30 07:16:07;;;;;;;1.23;0.63;;;13.20;99.90;;;;;;5117722;28;20226;-90
2021/04/30 07:18:37;;;;;;;1.70;0.97;;;13.10;99.90;;;;;;5119262;28;20655;-89
2021/04/30 07:21:09;;;;;;;1.93;0.43;;;13.10;99.90;;;;;;5118632;28;20255;-90
2021/04/30 07:23:39;;;;;;;1.07;0.57;;;13.20;99.90;;;;;;5118798;28;20213;-89
2021/04/30 07:26:10;;;;;;;1.10;0.50;;;13.10;99.90;;;;;;5118003;28;20251;-89
2021/04/30 07:28:43;;;;;;;0.60;0.60;;;13.10;99.90;;;;;;5118418;28;20702;-90
2021/04/30 07:31:13;;;;;;;1.50;0.60;;;13.10;99.90;;;;;;5120803;28;20206;-90
2021/04/30 07:33:46;;;;;;;0.50;0.37;;;13.20;99.90;;;;;;5120403;28;20206;-90
2021/04/30 07:36:17;;;;;;;1.37;0.50;;;13.20;99.90;;;;;;5117698;28;20569;-90
2021/04/30 07:38:48;;;;;;;0.93;0.83;;;13.20;99.90;;;;;;5120969;28;20232;-89
2021/04/30 07:41:19;;;;;;;1.70;0.50;;;13.20;99.90;;;;;;5122369;28;20276;-90
2021/04/30 07:43:51;;;;;;;2.00;0.70;;;13.20;99.90;;;;;;5119272;28;20203;-89
2021/04/30 07:46:22;;;;;;;1.30;0.70;;;13.20;99.90;;;;;;5107132;28;20342;-90
2021/04/30 07:48:54;;;;;;;1.87;0.70;;;13.20;99.90;;;;;;5102022;28;20203;-90
2021/04/30 07:51:25;;;;;;;1.10;0.70;;;13.20;99.90;;;;;;5098537;28;20202;-90
2021/04/30 07:53:55;;;;;;;1.43;0.70;;;13.20;99.90;;;;;;5100257;28;20249;-90
2021/04/30 07:56:26;;;;;;;0.70;0.53;;;13.10;99.90;;;;;;5099655;28;20698;-90
2021/04/30 07:58:59;;;;;;;1.77;0.70;;;13.10;99.90;;;;;;5080176;28;20215;-90
2021/04/30 08:01:30;;;;;;;2.77;0.67;;;13.10;99.90;;;;;;5082480;28;20244;-90
2021/04/30 08:04:01;;;;;;;2.10;0.50;;;13.20;99.90;;;;;;5081332;28;20301;-90
2021/04/30 08:06:31;;;;;;;1.43;0.77;;;13.20;99.90;;;;;;5100653;28;20207;-90
2021/04/30 08:09:01;;;;;;;1.33;0.70;;;13.20;99.90;;;;;;5097634;28;20286;-90
2021/04/30 08:11:32;;;;;;;2.23;0.70;;;13.20;99.90;;;;;;5098627;28;20594;-90
2021/04/30 08:14:06;;;;;;;1.33;0.40;;;13.20;99.90;;;;;;5098115;28;20206;-90
2021/04/30 08:16:38;;;;;;;0.53;0.53;;;13.20;99.90;;;;;;5097026;28;20576;-89
2021/04/30 08:19:09;;;;;;;1.13;0.50;;;13.20;99.90;;;;;;5097157;28;20206;-90
2021/04/30 08:21:39;;;;;;;0.80;0.50;;;13.20;99.90;;;;;;5100842;28;20560;-90
2021/04/30 08:24:11;;;;;;;0.77;0.50;;;13.20;99.90;;;;;;5079934;28;20199;-89
2021/04/30 08:26:42;;;;;;;0.90;0.60;;;13.20;99.90;;;;;;5097217;28;20207;-89
2021/04/30 08:29:14;;;;;;;0.70;0.60;;;13.20;99.90;;;;;;5097958;28;20241;-90
2021/04/30 08:31:45;;;;;;;0.73;0.40;;;13.20;99.90;;;;;;5098462;28;20343;-89
2021/04/30 08:34:16;;;;;;;1.07;0.60;;;13.20;99.90;;;;;;5097590;28;20690;-90
2021/04/30 08:37:04;;;;;;;0.60;0.50;;;13.20;99.90;;;;;;5095398;28;20690;-90
2021/04/30 08:39:34;;;;;;;1.53;0.53;;;13.20;99.90;;;;;;5095791;28;20337;-89
2021/04/30 08:42:06;;;;;;;0.80;0.50;;;13.10;99.90;;;;;;5112229;28;20194;-89
2021/04/30 08:44:39;;;;;;;0.77;0.60;;;13.10;99.90;;;;;;5132663;28;20210;-90
2021/04/30 08:47:10;;;;;;;1.50;0.40;;;13.10;99.90;;;;;;5132407;28;20198;-90
2021/04/30 08:49:41;;;;;;;0.93;0.47;;;13.10;99.90;;;;;;5104126;28;20289;-90
2021/04/30 08:52:12;;;;;;;0.90;0.50;;;13.10;99.90;;;;;;5118255;28;20242;-90
2021/04/30 08:54:43;;;;;;;0.90;0.40;;;13.10;99.90;;;;;;5100591;28;20305;-90
2021/04/30 08:57:16;;;;;;;0.70;0.60;;;13.00;99.90;;;;;;5117258;28;20285;-90
2021/04/30 08:59:49;;;;;;;0.60;0.30;;;13.00;99.90;;;;;;5117260;28;20236;-90
2021/04/30 09:02:20;;;;;;;0.57;0.43;;;13.00;99.90;;;;;;5117330;28;20301;-90
2021/04/30 09:04:51;;;;;;;0.50;0.50;;;13.00;99.90;;;;;;5116544;28;20206;-91
2021/04/30 09:07:24;;;;;;;0.40;0.40;;;13.00;99.90;;;;;;5117168;28;20725;-90
2021/04/30 09:10:04;;;;;;;1.07;0.50;;;12.90;99.90;;;;;;5116835;28;20195;-90
2021/04/30 09:12:36;;;;;;;0.63;0.57;;;12.80;99.90;;;;;;5116614;28;20198;-89
2021/04/30 09:15:20;;;;;;;1.27;0.87;;;12.70;99.90;;;;;;5115515;28;20217;-91
2021/04/30 09:17:51;;;;;;;0.53;0.47;;;12.70;99.90;;;;;;5116281;28;20554;-90
2021/04/30 09:20:21;;;;;;;0.47;0.40;;;12.70;99.90;;;;;;5116397;28;20246;-90
2021/04/30 09:22:52;;;;;;;1.47;0.60;;;12.60;99.90;;;;;;5116368;28;20672;-90
2021/04/30 09:25:23;;;;;;;0.73;0.60;;;12.60;99.90;;;;;;5119148;28;20930;-89
2021/04/30 09:27:57;;;;;;;1.23;0.50;;;12.50;99.90;;;;;;5115982;28;20284;-90
2021/04/30 09:30:30;;;;;;;1.13;0.57;;;12.50;99.90;;;;;;5116441;28;20244;-89
2021/04/30 09:33:10;;;;;;;1.70;0.60;;;12.50;99.90;;;;;;5118425;28;20226;-89
2021/04/30 09:35:42;;;;;;;1.67;0.40;;;12.50;99.90;;;;;;5116981;28;20261;-90
2021/04/30 09:38:18;;;;;;;0.30;0.30;;;12.60;99.90;;;;;;5118220;28;20274;-90
2021/04/30 09:40:49;;;;;;;1.20;0.50;;;12.50;99.90;;;;;;5126912;28;20205;-90
2021/04/30 09:43:21;;;;;;;0.53;0.50;;;12.60;99.90;;;;;;5128954;28;20205;-89
2021/04/30 09:45:53;;;;;;;1.00;0.40;;;12.60;99.90;;;;;;5124275;28;20198;-90
2021/04/30 09:48:24;;;;;;;1.13;0.50;;;12.60;99.90;;;;;;5116254;28;20670;-90
2021/04/30 09:50:55;;;;;;;1.73;0.50;;;12.60;99.90;;;;;;5115998;28;20570;-90
2021/04/30 09:53:31;;;;;;;0.97;0.60;;;12.60;99.90;;;;;;5116978;28;20198;-90
2021/04/30 09:56:04;;;;;;;0.50;0.50;;;12.60;99.90;;;;;;5115476;28;20233;-90
2021/04/30 09:58:46;;;;;;;0.50;0.50;;;12.60;99.90;;;;;;5116453;28;20198;-90
2021/04/30 10:01:26;;;;;;;0.50;0.40;;;12.70;99.90;;;;;;5116757;28;20251;-90
2021/04/30 10:03:57;;;;;;;1.37;0.50;;;12.70;99.90;;;;;;5116631;28;20198;-90
2021/04/30 10:06:27;;;;;;;0.90;0.50;;;12.70;99.90;;;;;;5115393;28;20225;-90
2021/04/30 10:09:06;;;;;;;0.40;0.40;;;12.70;99.90;;;;;;5115793;28;20202;-90
2021/04/30 10:11:38;;;;;;;0.33;0.33;;;12.70;99.90;;;;;;5115605;28;20237;-91
2021/04/30 10:14:09;;;;;;;1.37;0.67;;;12.70;99.90;;;;;;5115561;28;20248;-90
2021/04/30 10:16:43;;;;;;;1.43;0.50;;;12.70;99.90;;;;;;5114369;28;20266;-90
2021/04/30 10:19:13;;;;;;;0.60;0.50;;;12.70;99.90;;;;;;5115354;28;20692;-90
2021/04/30 10:21:47;;;;;;;1.80;0.70;;;12.60;99.90;;;;;;5115243;28;20247;-89
2021/04/30 10:24:21;;;;;;;1.87;0.90;;;12.50;99.90;;;;;;5115664;28;20205;-90
2021/04/30 10:26:57;;;;;;;0.87;0.40;;;12.50;99.90;;;;;;5114354;28;20202;-89
2021/04/30 10:29:31;;;;;;;1.20;0.50;;;12.50;99.90;;;;;;5114852;28;20232;-90
2021/04/30 10:32:05;;;;;;;0.70;0.70;;;12.50;99.90;;;;;;5097802;28;20616;-90
2021/04/30 10:34:41;;;;;;;1.00;0.63;;;12.40;99.90;;;;;;5115943;28;20198;-87
2021/04/30 10:37:20;;;;;;;0.50;0.50;;;12.30;99.90;;;;;;5116590;28;20236;-89
2021/04/30 10:39:59;;;;;;;0.50;0.50;;;12.30;99.90;;;;;;5115140;28;20226;-90
2021/04/30 10:42:39;;;;;;;0.50;0.50;;;12.30;99.90;;;;;;5115286;28;20655;-89
2021/04/30 10:45:13;;;;;;;0.80;0.40;;;12.30;99.90;;;;;;5113972;28;20194;-90
2021/04/30 10:48:06;;;;;;;0.80;0.53;;;12.30;99.90;;;;;;5115628;28;20293;-90
2021/04/30 10:50:37;;;;;;;0.90;0.50;;;12.30;99.90;;;;;;5114849;28;20210;-90
2021/04/30 10:53:29;;;;;;;0.50;0.50;;;12.30;99.90;;;;;;5115126;28;20210;-91
2021/04/30 10:56:00;;;;;;;0.50;0.50;;;12.30;99.90;;;;;;5114680;28;20627;-90
2021/04/30 10:58:37;;;;;;;3.77;0.67;;;12.30;99.90;;;;;;5115515;28;20227;-90
2021/04/30 11:01:25;;;;;;;0.70;0.50;;;12.30;99.90;;;;;;5115328;28;20229;-91
2021/04/30 11:04:17;;;;;;;0.43;0.40;;;12.30;99.90;;;;;;5126979;28;20205;-91
2021/04/30 11:06:51;;;;;;;1.63;0.70;;;12.30;99.90;;;;;;5129907;28;20198;-91
2021/04/30 11:09:32;;;;;;;1.67;0.60;;;12.30;99.90;;;;;;5132242;28;20197;-89
2021/04/30 11:12:20;;;;;;;1.23;0.50;;;12.30;99.90;;;;;;5099121;28;20202;-90
2021/04/30 11:15:04;;;;;;;1.90;0.60;;;12.30;99.90;;;;;;5097587;28;20202;-91
2021/04/30 11:17:54;;;;;;;0.87;0.60;;;12.20;99.90;;;;;;5117335;28;20251;-89
2021/04/30 11:20:28;;;;;;;1.13;0.87;;;12.10;99.90;;;;;;5100804;28;20198;-89
2021/04/30 11:23:20;;;;;;;1.53;0.60;;;12.10;99.90;;;;;;5119521;28;20339;-89
2021/04/30 11:26:07;;;;;;;0.50;0.50;;;11.90;99.90;;;;;;5113622;28;20238;-89
2021/04/30 11:29:09;;;;;;;1.33;0.60;;;11.90;99.90;;;;;;5117060;28;20197;-89
2021/04/30 11:31:41;;;;;;;1.50;0.60;;;11.90;99.90;;;;;;5110034;28;20565;-89
2021/04/30 11:34:22;;;;;;;1.27;0.60;;;11.90;99.90;;;;;;5117383;28;20210;-89
2021/04/30 11:37:01;;;;;;;1.13;0.70;;;11.90;99.90;;;;;;5115155;28;20250;-88
2021/04/30 11:39:35;;;;;;;0.70;0.50;;;11.90;99.90;;;;;;5115101;28;20228;-89
2021/04/30 11:42:07;;;;;;;0.73;0.43;;;11.90;99.90;;;;;;5115337;28;20206;-89
2021/04/30 11:44:39;;;;;;;0.77;0.70;;;11.90;99.90;;;;;;5114862;28;20263;-89
2021/04/30 11:47:14;;;;;;;1.07;0.60;;;11.90;99.90;;;;;;5113526;28;20202;-89
2021/04/30 11:50:06;;;;;;;1.10;0.57;;;12.00;99.90;;;;;;5114222;28;20292;-90
2021/04/30 11:52:42;;;;;;;1.17;0.50;;;12.00;99.90;;;;;;5117504;28;20565;-90
2021/04/30 11:55:15;;;;;;;1.30;0.50;;;12.10;99.90;;;;;;5114213;28;20208;-90
2021/04/30 11:57:53;;;;;;;0.40;0.40;;;12.00;99.90;;;;;;5116531;28;20670;-89
2021/04/30 12:00:25;;;;;;;1.03;0.60;;;12.00;99.90;;;;;;5118803;28;20221;-90
2021/04/30 12:03:05;;;;;;;1.20;0.57;;;12.00;99.90;;;;;;5124022;28;20569;-89
2021/04/30 12:05:36;;;;;;;1.00;0.70;;;12.00;99.90;;;;;;5125301;28;20662;-90
2021/04/30 12:08:09;;;;;;;0.57;0.57;;;12.00;99.90;;;;;;5122298;28;20297;-92
2021/04/30 12:10:40;;;;;;;0.80;0.60;;;12.00;99.90;;;;;;5119078;28;20206;-91
2021/04/30 12:13:20;;;;;;;1.10;0.60;;;12.00;99.90;;;;;;5105503;28;20573;-90
2021/04/30 12:15:51;;;;;;;0.53;0.53;;;12.00;99.90;;;;;;5079439;28;20248;-90
2021/04/30 12:18:22;;;;;;;0.80;0.60;;;12.00;99.90;;;;;;5097670;28;20245;-89
2021/04/30 12:20:53;;;;;;;3.60;0.67;;;12.00;99.90;;;;;;5097996;28;20203;-89
2021/04/30 12:23:25;;;;;;;1.30;0.70;;;12.00;99.90;;;;;;5097779;28;20659;-90
2021/04/30 12:25:56;;;;;;;1.03;0.73;;;12.10;99.90;;;;;;5099097;28;20202;-90
2021/04/30 12:28:29;;;;;;;0.60;0.60;;;12.10;99.90;;;;;;5098302;28;20211;-89
2021/04/30 12:31:02;;;;;;;2.83;0.67;;;12.10;99.90;;;;;;5099463;28;20663;-89
2021/04/30 12:33:38;;;;;;;1.47;0.70;;;12.20;99.90;;;;;;5098920;28;20235;-90
2021/04/30 12:36:11;;;;;;;2.47;0.90;;;12.20;99.90;;;;;;5096046;28;20234;-90
2021/04/30 12:38:46;;;;;;;0.60;0.60;;;12.20;99.90;;;;;;5096624;28;20207;-89
2021/04/30 12:41:22;;;;;;;0.60;0.60;;;12.20;99.90;;;;;;5109185;28;20229;-90
2021/04/30 12:43:54;;;;;;;0.80;0.60;;;12.20;99.90;;;;;;5117363;28;20201;-90
2021/04/30 12:46:27;;;;;;;0.50;0.50;;;12.20;99.90;;;;;;5118481;28;20736;-89
2021/04/30 12:48:58;;;;;;;1.93;0.80;;;12.30;99.90;;;;;;5120119;28;20206;-90
2021/04/30 12:51:30;;;;;;;1.77;0.70;;;12.40;99.90;;;;;;5117716;28;20285;-90
2021/04/30 12:54:01;;;;;;;0.83;0.60;;;12.40;99.90;;;;;;5119884;28;20218;-91
2021/04/30 12:56:33;;;;;;;0.87;0.50;;;12.30;99.90;;;;;;5118489;28;20258;-91
2021/04/30 12:59:09;;;;;;;0.40;0.40;;;12.40;99.90;;;;;;5116927;28;20721;-90
2021/04/30 13:01:41;;;;;;;0.80;0.60;;;12.40;99.90;;;;;;5119727;28;20206;-91
2021/04/30 13:04:16;;;;;;;0.60;0.60;;;12.40;99.90;;;;;;5119283;28;20720;-90
2021/04/30 13:06:48;;;;;;;2.07;0.50;;;12.40;99.90;;;;;;5100165;28;20296;-89
2021/04/30 13:09:22;;;;;;;0.90;0.57;;;12.40;99.90;;;;;;5117355;28;20206;-90
2021/04/30 13:12:04;;;;;;;0.67;0.60;;;12.40;99.90;;;;;;5116900;28;20201;-90
2021/04/30 13:14:46;;;;;;;0.90;0.50;;;12.40;99.90;;;;;;5117840;28;20601;-91
2021/04/30 13:17:19;;;;;;;3.53;0.67;;;12.40;99.90;;;;;;5117076;28;20317;-90